Time;durP1;ratioP1;P1;durP2;ratioP2;P2;SDS_P1;SDS_P2;PMS_P1;PMS_P2;Temp;Humidity;BMP_temperature;BMP_pressure;BME280_temperature;BME280_humidity;BME280_pressure;Samples;Min_cycle;Max_cycle;Signal;HPM_P1;HPM_P2
2023/09/29 00:00:34;;;;;;;8.10;7.30;;;;;;;15.82;75.45;98448.97;5056911;28;20069;-72
2023/09/29 00:02:59;;;;;;;7.30;6.60;;;;;;;15.87;74.86;98459.81;5037293;28;20059;-72
2023/09/29 00:05:27;;;;;;;8.38;6.85;;;;;;;15.83;74.85;98450.56;5071130;28;20029;-71
2023/09/29 00:07:53;;;;;;;8.68;7.28;;;;;;;15.76;74.91;98452.75;5074400;28;20040;-70
2023/09/29 00:10:20;;;;;;;6.22;5.63;;;;;;;15.76;74.82;98452.75;5056524;28;20154;-71
2023/09/29 00:12:46;;;;;;;6.55;5.95;;;;;;;15.74;74.86;98454.91;5036579;28;20095;-71
2023/09/29 00:15:12;;;;;;;7.60;6.05;;;;;;;15.48;74.97;98423.41;5054584;28;20469;-71
2023/09/29 00:17:37;;;;;;;9.65;6.10;;;;;;;15.68;75.18;98451.38;5055228;28;20116;-70
2023/09/29 00:20:23;;;;;;;11.23;7.20;;;;;;;15.67;75.15;98459.81;5068769;28;20025;-71
2023/09/29 00:22:52;;;;;;;7.88;7.00;;;;;;;15.51;75.03;98450.84;5055203;28;20036;-71
2023/09/29 00:25:18;;;;;;;9.30;6.57;;;;;;;15.40;75.49;98443.75;5072562;28;20056;-70
2023/09/29 00:27:44;;;;;;;8.45;7.30;;;;;;;15.44;75.45;98476.56;5072907;28;20730;-72
2023/09/29 00:30:12;;;;;;;9.07;7.70;;;;;;;15.46;75.59;98477.16;5055178;28;20056;-70
2023/09/29 00:32:42;;;;;;;10.10;7.88;;;;;;;15.34;76.74;98487.41;5038405;28;20044;-69
2023/09/29 00:35:09;;;;;;;9.23;8.20;;;;;;;15.15;76.59;98474.34;5050854;28;20060;-70
2023/09/29 00:37:34;;;;;;;10.98;8.65;;;;;;;15.04;76.35;98461.81;5050981;28;20032;-70
2023/09/29 00:40:00;;;;;;;8.30;7.40;;;;;;;15.07;77.03;98474.88;5038401;28;20029;-72
2023/09/29 00:42:26;;;;;;;8.20;7.40;;;;;;;15.14;77.16;98483.56;5054708;28;20029;-73
2023/09/29 00:44:52;;;;;;;7.82;6.97;;;;;;;15.16;77.41;98486.81;5071641;28;20031;-71
2023/09/29 00:47:17;;;;;;;8.40;7.18;;;;;;;15.15;77.08;98482.47;5051641;28;20108;-71
2023/09/29 00:49:46;;;;;;;8.15;7.00;;;;;;;15.05;76.80;98457.22;5054206;28;20032;-71
2023/09/29 00:52:13;;;;;;;7.45;6.65;;;;;;;15.19;76.67;98482.78;5054440;28;20078;-71
2023/09/29 00:54:38;;;;;;;6.88;6.25;;;;;;;15.12;76.64;98474.84;5036095;28;20408;-71
2023/09/29 00:57:05;;;;;;;7.38;6.68;;;;;;;15.11;76.69;98467.81;5050825;28;20032;-70
2023/09/29 00:59:31;;;;;;;7.60;6.60;;;;;;;15.21;76.68;98481.41;5051257;28;20044;-70
2023/09/29 01:01:57;;;;;;;8.80;7.03;;;;;;;15.16;76.80;98478.69;5064674;28;20033;-71
2023/09/29 01:04:23;;;;;;;6.90;6.30;;;;;;;15.13;77.00;98464.81;5032686;28;20090;-71
2023/09/29 01:06:49;;;;;;;8.55;6.60;;;;;;;15.19;76.67;98478.13;5053960;28;20024;-70
2023/09/29 01:09:16;;;;;;;9.90;7.22;;;;;;;15.17;76.89;98483.00;5050992;28;20443;-70
2023/09/29 01:11:45;;;;;;;9.63;7.10;;;;;;;15.13;77.11;98481.94;5043773;28;20031;-70
2023/09/29 01:14:11;;;;;;;7.78;6.97;;;;;;;15.22;76.96;98479.50;5041285;28;20032;-71
2023/09/29 01:16:41;;;;;;;7.75;7.03;;;;;;;15.14;76.79;98472.72;5002109;28;1305551;-71
2023/09/29 01:19:14;;;;;;;9.27;7.40;;;;;;;15.16;76.64;98481.41;5049813;28;20033;-70
2023/09/29 01:21:44;;;;;;;7.70;6.90;;;;;;;15.16;76.85;98477.88;5062847;28;20119;-70
2023/09/29 01:24:10;;;;;;;7.82;6.72;;;;;;;15.15;77.02;98485.19;5044382;28;20040;-70
2023/09/29 01:26:36;;;;;;;8.35;7.18;;;;;;;15.13;76.72;98476.50;5033131;28;20078;-70
2023/09/29 01:29:02;;;;;;;7.80;6.80;;;;;;;15.12;76.56;98480.28;5051503;28;20028;-71
2023/09/29 01:31:28;;;;;;;8.35;6.72;;;;;;;14.99;76.59;98459.09;5053785;28;20059;-71
2023/09/29 01:33:54;;;;;;;7.70;6.88;;;;;;;15.02;76.93;98464.00;5052505;28;20036;-71
2023/09/29 01:36:20;;;;;;;9.13;7.55;;;;;;;14.97;76.13;98455.00;5053259;28;20377;-71
2023/09/29 01:38:45;;;;;;;8.10;6.95;;;;;;;15.02;76.33;98474.84;5049348;28;20051;-70
2023/09/29 01:41:13;;;;;;;7.05;6.45;;;;;;;14.95;76.03;98468.84;5038042;28;20228;-71
2023/09/29 01:43:39;;;;;;;10.27;7.78;;;;;;;14.93;76.44;98465.59;5054569;28;20040;-72
2023/09/29 01:46:04;;;;;;;7.50;6.57;;;;;;;14.95;76.79;98479.69;5033161;28;20020;-73
2023/09/29 01:48:30;;;;;;;7.65;6.93;;;;;;;14.79;76.83;98456.31;5067945;28;20032;-73
2023/09/29 01:50:56;;;;;;;8.02;7.03;;;;;;;14.80;76.73;98455.22;5071403;28;20473;-71
2023/09/29 01:53:21;;;;;;;6.70;6.03;;;;;;;14.92;76.87;98463.94;5037404;28;20044;-71
2023/09/29 01:55:46;;;;;;;7.70;6.72;;;;;;;14.93;76.93;98462.88;5053511;28;20032;-71
2023/09/29 01:58:12;;;;;;;7.78;6.30;;;;;;;14.94;77.04;98456.34;5034171;28;20489;-71
2023/09/29 02:00:38;;;;;;;7.63;6.53;;;;;;;14.90;76.97;98446.31;5049132;28;20020;-71
2023/09/29 02:03:06;;;;;;;6.72;6.13;;;;;;;14.92;77.22;98441.44;5071859;28;20028;-71
2023/09/29 02:05:32;;;;;;;8.27;6.13;;;;;;;14.97;77.10;98458.53;5053437;28;20028;-70
2023/09/29 02:07:58;;;;;;;8.98;6.90;;;;;;;14.85;76.89;98436.25;5053125;28;20050;-71
2023/09/29 02:10:24;;;;;;;9.00;8.10;;;;;;;14.79;77.71;98458.19;5050614;28;20039;-71
2023/09/29 02:12:55;;;;;;;8.75;8.02;;;;;;;14.78;77.27;98462.81;5048784;28;20400;-70
2023/09/29 02:15:21;;;;;;;9.13;7.93;;;;;;;14.50;77.53;98434.22;5033303;28;20036;-71
2023/09/29 02:17:49;;;;;;;8.68;7.88;;;;;;;14.60;77.96;98465.97;5032098;28;20025;-71
2023/09/29 02:20:18;;;;;;;9.20;7.57;;;;;;;14.60;78.17;98460.56;5050455;28;20032;-71
2023/09/29 02:22:44;;;;;;;8.48;7.22;;;;;;;14.63;78.23;98465.47;5050539;28;20396;-72
2023/09/29 02:25:11;;;;;;;7.57;6.78;;;;;;;14.62;78.00;98455.69;5053187;28;20044;-70
2023/09/29 02:27:37;;;;;;;8.80;7.07;;;;;;;14.54;77.95;98443.44;5047066;28;20025;-71
2023/09/29 02:30:04;;;;;;;7.57;6.75;;;;;;;14.58;77.96;98440.22;5033919;28;20080;-72
2023/09/29 02:32:29;;;;;;;7.50;6.80;;;;;;;14.58;77.44;98443.75;5032104;28;20078;-73
2023/09/29 02:34:55;;;;;;;8.00;6.97;;;;;;;14.52;77.54;98425.81;5069014;28;20407;-73
2023/09/29 02:37:21;;;;;;;8.75;7.95;;;;;;;14.66;78.01;98447.81;5033028;28;20119;-71
2023/09/29 02:39:48;;;;;;;13.73;12.43;;;;;;;14.57;77.94;98436.69;5051275;28;20029;-73
2023/09/29 02:42:13;;;;;;;8.98;8.07;;;;;;;14.64;77.77;98453.53;5053438;28;20446;-73
2023/09/29 02:44:40;;;;;;;7.88;7.00;;;;;;;14.61;77.91;98464.88;5033663;28;20075;-71
2023/09/29 02:47:06;;;;;;;10.05;7.65;;;;;;;14.57;78.32;98455.66;5051659;28;20444;-71
2023/09/29 02:49:33;;;;;;;8.50;7.53;;;;;;;14.53;78.07;98452.66;5050070;28;20032;-73
2023/09/29 02:51:59;;;;;;;8.23;7.35;;;;;;;14.51;78.22;98446.69;5045199;28;20024;-73
2023/09/29 02:54:25;;;;;;;8.95;8.05;;;;;;;14.41;78.22;98426.84;5033330;28;20044;-73
2023/09/29 02:56:50;;;;;;;8.50;7.65;;;;;;;14.44;78.42;98440.69;5040246;28;20021;-71
2023/09/29 02:59:16;;;;;;;8.00;6.97;;;;;;;14.35;77.84;98425.19;5033586;28;20039;-71
2023/09/29 03:01:44;;;;;;;7.90;7.10;;;;;;;14.40;78.27;98436.03;5049981;28;20020;-70
2023/09/29 03:04:10;;;;;;;8.23;7.53;;;;;;;14.48;78.16;98457.25;5049853;28;20041;-70
2023/09/29 03:06:35;;;;;;;8.05;7.20;;;;;;;14.32;77.71;98444.69;5048254;28;20388;-73
2023/09/29 03:09:01;;;;;;;8.93;6.95;;;;;;;14.40;78.10;98444.16;5049992;28;20401;-69
2023/09/29 03:11:26;;;;;;;7.68;6.97;;;;;;;14.38;78.12;98457.16;5044252;28;20037;-70
2023/09/29 03:13:55;;;;;;;12.75;7.53;;;;;;;14.34;78.35;98450.66;5051232;28;20082;-70
2023/09/29 03:16:24;;;;;;;8.57;7.78;;;;;;;14.32;78.37;98442.78;5053250;28;20025;-70
2023/09/29 03:18:50;;;;;;;9.43;7.80;;;;;;;14.29;78.24;98443.28;5050996;28;20033;-69
2023/09/29 03:21:16;;;;;;;9.43;8.32;;;;;;;14.25;78.37;98441.34;5053231;28;20031;-70
2023/09/29 03:23:43;;;;;;;10.88;7.85;;;;;;;14.24;78.61;98434.28;5069524;28;20028;-72
2023/09/29 03:26:09;;;;;;;9.88;6.93;;;;;;;14.24;78.46;98434.28;5051119;28;20048;-71
2023/09/29 03:28:35;;;;;;;9.25;7.63;;;;;;;14.21;78.45;98429.41;5053333;28;20044;-72
2023/09/29 03:31:05;;;;;;;10.32;9.25;;;;;;;14.14;78.51;98434.25;5047842;28;20032;-71
2023/09/29 03:33:32;;;;;;;10.85;8.95;;;;;;;14.13;78.73;98444.25;5053134;28;20039;-71
2023/09/29 03:35:57;;;;;;;7.45;6.68;;;;;;;14.17;79.33;98455.38;5051212;28;20086;-71
2023/09/29 03:38:25;;;;;;;7.68;6.97;;;;;;;14.06;79.73;98430.13;5070972;28;20040;-71
2023/09/29 03:40:52;;;;;;;7.82;7.10;;;;;;;14.11;79.84;98440.19;5050885;28;20044;-71
2023/09/29 03:43:23;;;;;;;8.80;6.68;;;;;;;14.23;79.90;98446.22;5038809;28;20071;-72
2023/09/29 03:45:53;;;;;;;7.43;6.65;;;;;;;14.26;79.94;98443.78;5036048;28;20033;-70
2023/09/29 03:48:19;;;;;;;7.70;6.85;;;;;;;14.24;79.88;98424.28;5053523;28;20066;-71
2023/09/29 03:50:44;;;;;;;8.40;7.60;;;;;;;14.31;79.82;98441.16;5070905;28;20056;-72
2023/09/29 03:53:10;;;;;;;10.50;8.32;;;;;;;14.30;79.50;98444.13;5036445;28;20036;-72
2023/09/29 03:55:35;;;;;;;8.10;7.35;;;;;;;14.26;79.49;98437.59;5035790;28;20024;-72
2023/09/29 03:58:01;;;;;;;8.82;7.78;;;;;;;14.27;80.00;98433.78;5052302;28;20086;-73
2023/09/29 04:00:27;;;;;;;10.02;7.70;;;;;;;14.32;79.46;98441.97;5049669;28;20025;-73
2023/09/29 04:02:52;;;;;;;8.40;6.70;;;;;;;14.39;79.46;98442.56;5050460;28;20046;-73
2023/09/29 04:05:19;;;;;;;7.90;6.80;;;;;;;14.37;79.83;98440.13;5048568;28;20060;-72
2023/09/29 04:07:45;;;;;;;8.93;7.53;;;;;;;14.37;79.81;98455.56;5023813;28;20420;-72
2023/09/29 04:10:12;;;;;;;10.23;8.13;;;;;;;14.15;79.54;98414.19;5052270;28;20089;-73
2023/09/29 04:12:39;;;;;;;8.15;7.45;;;;;;;14.34;79.76;98456.06;5053286;28;20064;-73
2023/09/29 04:15:05;;;;;;;9.10;7.53;;;;;;;14.34;79.73;98450.66;5050456;28;20021;-74
2023/09/29 04:17:31;;;;;;;12.73;7.78;;;;;;;14.26;80.05;98437.59;5065187;28;20051;-73
2023/09/29 04:19:56;;;;;;;8.82;6.88;;;;;;;14.23;79.69;98454.34;5056238;28;20688;-73
2023/09/29 04:22:24;;;;;;;8.95;7.70;;;;;;;14.19;79.70;98458.66;5056499;28;20090;-71
2023/09/29 04:24:51;;;;;;;11.98;8.63;;;;;;;14.19;79.54;98469.50;5039638;28;20024;-71
2023/09/29 04:27:16;;;;;;;8.80;7.90;;;;;;;14.10;79.56;98460.22;5053056;28;20054;-71
2023/09/29 04:29:41;;;;;;;8.40;7.60;;;;;;;14.14;79.75;98477.59;5052860;28;20473;-71
2023/09/29 04:32:07;;;;;;;8.85;7.95;;;;;;;14.08;79.48;98467.78;5073410;28;20032;-72
2023/09/29 04:34:33;;;;;;;8.30;7.47;;;;;;;14.01;79.90;98456.34;5047713;28;20025;-71
2023/09/29 04:36:58;;;;;;;8.20;7.50;;;;;;;14.11;79.48;98457.25;5055755;28;20082;-70
2023/09/29 04:39:23;;;;;;;8.40;7.50;;;;;;;14.07;79.77;98449.91;5039504;28;20491;-71
2023/09/29 04:41:49;;;;;;;8.85;7.63;;;;;;;14.09;79.17;98442.34;5073875;28;20051;-71
2023/09/29 04:44:15;;;;;;;8.18;7.38;;;;;;;14.17;79.49;98450.78;5036187;28;20139;-72
2023/09/29 04:46:42;;;;;;;7.82;6.72;;;;;;;14.25;79.27;98446.78;5069161;28;20052;-71
2023/09/29 04:49:07;;;;;;;8.43;7.50;;;;;;;14.29;79.95;98458.72;5049021;28;20145;-72
2023/09/29 04:51:33;;;;;;;9.63;7.18;;;;;;;14.32;79.72;98452.81;5049467;28;20485;-72
2023/09/29 04:53:59;;;;;;;8.50;7.68;;;;;;;14.32;79.55;98452.81;5052025;28;20032;-73
2023/09/29 04:56:24;;;;;;;7.97;7.18;;;;;;;14.28;79.54;98454.38;5052032;28;20037;-72
2023/09/29 04:58:50;;;;;;;11.68;7.93;;;;;;;14.17;80.01;98449.97;5052694;28;20071;-72
2023/09/29 05:01:17;;;;;;;9.90;8.02;;;;;;;14.23;80.03;98468.72;5051497;28;20089;-73
2023/09/29 05:03:42;;;;;;;9.13;7.78;;;;;;;14.19;79.75;98472.22;5040778;28;20029;-70
2023/09/29 05:06:08;;;;;;;8.60;7.47;;;;;;;14.02;80.32;98452.59;5046287;28;20055;-71
2023/09/29 05:08:35;;;;;;;10.02;8.43;;;;;;;14.08;80.35;98465.06;5072441;28;20024;-72
2023/09/29 05:11:01;;;;;;;9.30;8.30;;;;;;;14.12;80.01;98479.75;5073289;28;20090;-73
2023/09/29 05:13:32;;;;;;;11.68;8.88;;;;;;;14.00;80.34;98460.16;5055284;28;20024;-73
2023/09/29 05:15:57;;;;;;;9.10;7.60;;;;;;;14.01;80.24;98456.34;5055681;28;20714;-74
2023/09/29 05:18:23;;;;;;;8.40;7.47;;;;;;;14.14;80.53;98472.19;5052615;28;20070;-73
2023/09/29 05:20:48;;;;;;;9.02;7.65;;;;;;;14.17;80.28;98480.59;5047735;28;20040;-74
2023/09/29 05:23:14;;;;;;;8.27;7.57;;;;;;;14.15;80.61;98471.09;5073832;28;20025;-73
2023/09/29 05:25:46;;;;;;;10.75;7.90;;;;;;;14.20;80.30;98476.53;5059813;28;20513;-73
2023/09/29 05:28:12;;;;;;;9.60;7.95;;;;;;;14.10;80.04;98471.03;5039610;28;20059;-73
2023/09/29 05:30:37;;;;;;;9.48;8.20;;;;;;;14.18;80.43;98484.13;5074058;28;20387;-75
2023/09/29 05:33:04;;;;;;;9.98;8.98;;;;;;;14.08;80.11;98478.59;5055101;28;20132;-75
2023/09/29 05:35:29;;;;;;;9.27;8.38;;;;;;;13.97;80.25;98466.91;5055752;28;20092;-73
2023/09/29 05:37:55;;;;;;;10.23;8.80;;;;;;;13.99;80.34;98475.56;5067413;28;20119;-73
2023/09/29 05:40:21;;;;;;;10.50;8.07;;;;;;;14.11;80.16;98491.66;5054941;28;20035;-73
2023/09/29 05:42:47;;;;;;;9.70;8.57;;;;;;;14.15;80.00;98490.03;5054989;28;20051;-73
2023/09/29 05:45:12;;;;;;;9.57;8.05;;;;;;;14.03;80.62;98473.16;5051162;28;20021;-72
2023/09/29 05:47:38;;;;;;;8.23;7.32;;;;;;;14.05;80.03;98462.91;5066287;28;20033;-74
2023/09/29 05:50:04;;;;;;;9.57;7.60;;;;;;;14.23;80.28;98481.44;5064448;28;20417;-72
2023/09/29 05:52:29;;;;;;;8.73;7.82;;;;;;;14.20;79.79;98476.53;5054721;28;20025;-73
2023/09/29 05:54:54;;;;;;;10.05;8.38;;;;;;;14.15;80.05;98466.47;5072096;28;20435;-73
2023/09/29 05:57:20;;;;;;;10.20;8.57;;;;;;;14.28;80.57;98476.06;5034751;28;20041;-72
2023/09/29 05:59:46;;;;;;;9.45;8.45;;;;;;;14.22;80.46;98474.38;5064105;28;20112;-73
2023/09/29 06:02:11;;;;;;;10.02;8.30;;;;;;;14.32;80.27;98485.31;5051225;28;20044;-73
2023/09/29 06:04:36;;;;;;;8.18;7.38;;;;;;;14.14;80.54;98474.88;5028865;28;20020;-73
2023/09/29 06:07:02;;;;;;;8.52;7.10;;;;;;;14.33;80.29;98493.19;5054498;28;20156;-73
2023/09/29 06:09:28;;;;;;;9.05;7.65;;;;;;;14.42;80.20;98491.59;5054312;28;20025;-73
2023/09/29 06:11:54;;;;;;;8.55;7.75;;;;;;;14.39;80.04;98480.50;5051040;28;20373;-73
2023/09/29 06:14:19;;;;;;;9.52;8.02;;;;;;;14.49;80.09;98492.19;5045874;28;20036;-73
2023/09/29 06:16:45;;;;;;;9.85;8.23;;;;;;;14.62;80.23;98480.09;5053734;28;20132;-73
2023/09/29 06:19:10;;;;;;;9.93;8.15;;;;;;;14.81;79.95;98500.25;5051016;28;20044;-72
2023/09/29 06:21:35;;;;;;;8.93;8.10;;;;;;;14.92;80.43;98492.97;5052232;28;20377;-73
2023/09/29 06:24:01;;;;;;;8.43;7.63;;;;;;;14.94;80.04;98469.09;5071942;28;20020;-73
2023/09/29 06:26:26;;;;;;;9.38;8.48;;;;;;;15.18;79.54;98490.09;5071544;28;20039;-73
2023/09/29 06:28:51;;;;;;;9.80;8.13;;;;;;;15.24;79.78;98489.00;5071931;28;20468;-72
2023/09/29 06:31:17;;;;;;;12.63;8.05;;;;;;;15.37;79.39;98487.69;5071826;28;20123;-73
2023/09/29 06:33:42;;;;;;;10.63;8.07;;;;;;;15.60;79.41;98497.25;5050347;28;20029;-73
2023/09/29 06:36:08;;;;;;;9.82;8.07;;;;;;;15.62;79.63;98489.66;5054399;28;20094;-72
2023/09/29 06:38:33;;;;;;;9.27;8.20;;;;;;;15.75;79.50;98484.50;5050596;28;20032;-74
2023/09/29 06:40:59;;;;;;;10.20;7.75;;;;;;;15.86;79.19;98501.66;5068219;28;20380;-73
2023/09/29 06:43:24;;;;;;;9.23;8.30;;;;;;;16.02;79.13;98506.00;5071719;28;20078;-73
2023/09/29 06:45:49;;;;;;;9.98;7.90;;;;;;;16.17;78.98;98511.44;5053344;28;20089;-73
2023/09/29 06:48:15;;;;;;;9.45;7.78;;;;;;;16.28;78.77;98514.94;5071617;28;20025;-73
2023/09/29 06:50:40;;;;;;;8.57;7.78;;;;;;;16.31;78.38;98515.22;5053741;28;20598;-72
2023/09/29 06:53:06;;;;;;;9.55;7.28;;;;;;;16.34;78.53;98517.38;5037082;28;20111;-73
2023/09/29 06:55:31;;;;;;;9.82;7.15;;;;;;;16.31;77.93;98509.78;5053197;28;20382;-73
2023/09/29 06:57:58;;;;;;;8.73;7.20;;;;;;;16.24;78.42;98509.22;5053418;28;20028;-76
2023/09/29 07:00:24;;;;;;;10.70;6.72;;;;;;;16.29;78.50;98530.97;5053069;28;20044;-73
2023/09/29 07:02:50;;;;;;;7.22;6.53;;;;;;;16.15;79.03;98527.19;5034118;28;20024;-74
2023/09/29 07:05:15;;;;;;;9.48;7.45;;;;;;;16.18;78.19;98536.69;5045882;28;20047;-73
2023/09/29 07:07:41;;;;;;;9.80;8.15;;;;;;;16.18;77.72;98545.66;5053530;28;20021;-73
2023/09/29 07:10:06;;;;;;;9.50;8.10;;;;;;;16.25;77.03;98543.50;5071443;28;20480;-73
2023/09/29 07:12:32;;;;;;;11.07;8.93;;;;;;;16.34;75.95;98541.03;5050231;28;20024;-74
2023/09/29 07:14:57;;;;;;;12.02;8.65;;;;;;;16.37;75.79;98525.00;5066352;28;20075;-73
2023/09/29 07:17:23;;;;;;;9.35;8.00;;;;;;;16.54;75.26;98536.44;5049897;28;20493;-73
2023/09/29 07:19:48;;;;;;;9.80;8.50;;;;;;;16.62;75.09;98526.88;5067858;28;20039;-72
2023/09/29 07:22:14;;;;;;;10.95;8.05;;;;;;;16.76;75.15;98532.56;5071360;28;20025;-72
2023/09/29 07:24:41;;;;;;;8.77;7.88;;;;;;;16.78;74.99;98520.31;5053265;28;20032;-73
2023/09/29 07:27:08;;;;;;;8.68;7.78;;;;;;;16.91;74.78;98519.75;5053561;28;20484;-73
2023/09/29 07:29:34;;;;;;;9.60;7.72;;;;;;;16.96;74.61;98505.31;5053304;28;20041;-73
2023/09/29 07:31:59;;;;;;;9.75;8.20;;;;;;;17.13;74.56;98533.00;5050033;28;20036;-73
2023/09/29 07:34:27;;;;;;;8.65;7.80;;;;;;;17.29;74.17;98542.75;5062940;28;20116;-73
2023/09/29 07:36:53;;;;;;;8.80;7.88;;;;;;;17.40;74.21;98533.44;5049608;28;20033;-74
2023/09/29 07:39:18;;;;;;;8.10;7.30;;;;;;;17.48;73.95;98532.81;5049995;28;20056;-73
2023/09/29 07:41:44;;;;;;;9.32;7.43;;;;;;;17.53;74.26;98530.09;5036683;28;20417;-73
2023/09/29 07:44:09;;;;;;;16.25;7.68;;;;;;;17.67;73.74;98544.75;5071631;28;20408;-73
2023/09/29 07:46:35;;;;;;;10.02;7.60;;;;;;;17.77;73.15;98550.13;5074606;28;20024;-74
2023/09/29 07:49:02;;;;;;;8.90;7.82;;;;;;;17.81;73.42;98551.19;5040471;28;20470;-73
2023/09/29 07:51:28;;;;;;;11.07;8.10;;;;;;;17.82;73.96;98544.66;5057252;28;20153;-73
2023/09/29 07:53:53;;;;;;;10.13;7.60;;;;;;;18.01;73.93;98538.53;5056601;28;20044;-74
2023/09/29 07:56:19;;;;;;;10.13;7.03;;;;;;;18.05;73.55;98545.84;5053181;28;20033;-74
2023/09/29 07:58:44;;;;;;;7.43;6.60;;;;;;;18.16;73.45;98547.41;5052998;28;20028;-73
2023/09/29 08:01:10;;;;;;;7.47;6.65;;;;;;;18.26;73.31;98532.88;5056877;28;20040;-73
2023/09/29 08:03:35;;;;;;;7.75;6.55;;;;;;;18.50;73.01;98541.97;5056660;28;20090;-74
2023/09/29 08:06:01;;;;;;;10.43;7.47;;;;;;;18.51;72.67;98510.84;5056448;28;20468;-73
2023/09/29 08:08:26;;;;;;;11.10;7.07;;;;;;;18.79;72.28;98534.56;5074635;28;20037;-73
2023/09/29 08:10:55;;;;;;;12.35;7.15;;;;;;;18.85;72.07;98522.50;5056848;28;20112;-72
2023/09/29 08:13:20;;;;;;;8.82;6.28;;;;;;;18.98;71.55;98523.72;5056643;28;20036;-73
2023/09/29 08:15:46;;;;;;;9.45;6.90;;;;;;;18.98;71.44;98516.34;5052300;28;20048;-74
2023/09/29 08:18:12;;;;;;;9.32;7.22;;;;;;;19.10;70.89;98514.03;5052434;28;20597;-73
2023/09/29 08:20:37;;;;;;;9.45;6.72;;;;;;;19.16;70.10;98506.59;5055628;28;20115;-73
2023/09/29 08:23:03;;;;;;;9.73;6.50;;;;;;;19.04;69.63;98476.94;5056269;28;20072;-73
2023/09/29 08:25:29;;;;;;;9.00;6.50;;;;;;;19.23;69.96;98496.91;5073912;28;20028;-73
2023/09/29 08:27:56;;;;;;;9.45;6.60;;;;;;;19.22;69.42;98489.03;5056456;28;20041;-74
2023/09/29 08:30:22;;;;;;;9.57;6.97;;;;;;;19.38;69.28;98497.84;5056176;28;20486;-74
2023/09/29 08:32:47;;;;;;;7.43;6.07;;;;;;;19.36;69.34;98500.91;5056142;28;20083;-74
2023/09/29 08:35:13;;;;;;;7.25;6.43;;;;;;;19.37;68.65;98490.78;5035855;28;20499;-74
2023/09/29 08:37:45;;;;;;;9.98;6.00;;;;;;;19.37;68.60;98488.06;5052592;28;20036;-74
2023/09/29 08:40:13;;;;;;;9.05;6.65;;;;;;;19.25;68.54;98461.16;5056518;28;20431;-73
2023/09/29 08:42:40;;;;;;;7.88;6.35;;;;;;;19.51;68.39;98491.69;5056078;28;20028;-74
2023/09/29 08:45:12;;;;;;;8.00;6.60;;;;;;;19.51;67.94;98502.63;5052641;28;20416;-74
2023/09/29 08:47:40;;;;;;;9.85;6.10;;;;;;;19.65;67.53;98508.97;5055845;28;20125;-74
2023/09/29 08:50:06;;;;;;;8.32;5.80;;;;;;;19.66;67.86;98503.19;5056240;28;20026;-73
2023/09/29 08:52:32;;;;;;;8.45;6.22;;;;;;;19.86;67.88;98510.28;5039613;28;20033;-74
2023/09/29 08:54:59;;;;;;;8.13;6.00;;;;;;;20.00;67.93;98516.59;5049854;28;20028;-73
2023/09/29 08:57:25;;;;;;;7.70;5.93;;;;;;;20.14;67.94;98512.00;5035840;28;20044;-74
2023/09/29 08:59:52;;;;;;;8.48;5.75;;;;;;;20.23;67.60;98504.81;5048462;28;20560;-73
2023/09/29 09:02:18;;;;;;;9.48;6.25;;;;;;;20.36;67.09;98514.97;5055874;28;20134;-74
2023/09/29 09:04:43;;;;;;;9.82;6.30;;;;;;;20.45;66.58;98521.38;5073352;28;20028;-74
2023/09/29 09:07:08;;;;;;;8.88;6.40;;;;;;;20.43;66.03;98504.44;5042608;28;20029;-73
2023/09/29 09:09:35;;;;;;;8.80;5.57;;;;;;;20.61;65.43;98511.78;5035587;28;20017;-73
2023/09/29 09:12:02;;;;;;;7.15;5.75;;;;;;;20.72;64.96;98517.06;5070961;28;20033;-73
2023/09/29 09:14:38;;;;;;;9.27;6.15;;;;;;;20.72;64.35;98495.16;5055330;28;20430;-74
2023/09/29 09:17:04;;;;;;;12.02;7.32;;;;;;;20.86;64.03;98498.72;5055303;28;20032;-73
2023/09/29 09:19:29;;;;;;;10.48;7.22;;;;;;;20.87;63.45;98492.13;5052385;28;20039;-73
2023/09/29 09:21:55;;;;;;;11.68;7.38;;;;;;;20.96;62.97;98479.34;5052054;28;20044;-73
2023/09/29 09:24:23;;;;;;;8.65;5.60;;;;;;;21.10;62.87;98474.69;5042842;28;20501;-74
2023/09/29 09:26:49;;;;;;;9.45;6.43;;;;;;;21.19;62.32;98467.41;5037918;28;20029;-73
2023/09/29 09:29:16;;;;;;;9.73;5.18;;;;;;;21.30;61.93;98477.03;5054842;28;20017;-75
2023/09/29 09:31:46;;;;;;;10.65;7.03;;;;;;;21.40;61.47;98484.22;5051599;28;20123;-75
2023/09/29 09:34:12;;;;;;;9.45;5.85;;;;;;;21.47;61.13;98496.38;5049437;28;20040;-75
2023/09/29 09:36:52;;;;;;;7.72;5.22;;;;;;;21.59;61.07;98496.66;5051080;28;20120;-75
2023/09/29 09:39:24;;;;;;;13.00;5.95;;;;;;;21.62;60.93;98498.78;5034089;28;20037;-75
2023/09/29 09:41:54;;;;;;;9.43;5.60;;;;;;;21.60;60.71;98472.78;5055260;28;20041;-75
2023/09/29 09:44:20;;;;;;;8.57;5.50;;;;;;;21.75;60.94;98491.66;5072503;28;20048;-74
2023/09/29 09:46:52;;;;;;;8.40;5.65;;;;;;;21.79;60.51;98492.66;5054243;28;20024;-74
2023/09/29 09:49:24;;;;;;;8.70;5.85;;;;;;;21.78;60.53;98482.78;5054924;28;20036;-75
2023/09/29 09:51:52;;;;;;;6.80;5.60;;;;;;;21.88;60.49;98494.38;5072516;28;20093;-75
2023/09/29 09:54:20;;;;;;;9.68;5.75;;;;;;;21.89;60.53;98486.97;5038354;28;20443;-74
2023/09/29 09:57:01;;;;;;;8.98;5.60;;;;;;;21.94;59.88;98490.38;5050804;28;20068;-75
2023/09/29 09:59:29;;;;;;;11.23;6.88;;;;;;;22.06;60.35;98508.19;5044117;28;20115;-74
2023/09/29 10:01:56;;;;;;;11.57;5.93;;;;;;;22.12;59.69;98516.03;5072253;28;20099;-75
2023/09/29 10:04:26;;;;;;;13.50;9.68;;;;;;;22.07;59.68;98502.41;5051212;28;20041;-74
2023/09/29 10:06:55;;;;;;;8.88;5.93;;;;;;;22.16;59.24;98513.44;5050137;28;20034;-75
2023/09/29 10:09:21;;;;;;;7.18;5.15;;;;;;;22.16;58.93;98494.25;5034936;28;20029;-75
2023/09/29 10:11:57;;;;;;;6.50;5.18;;;;;;;22.32;58.47;98504.53;5051508;28;20033;-75
2023/09/29 10:14:22;;;;;;;10.60;5.47;;;;;;;22.44;58.84;98517.69;5037668;28;20055;-74
2023/09/29 10:16:48;;;;;;;8.27;5.25;;;;;;;22.46;58.90;98507.19;5049860;28;20032;-74
2023/09/29 10:19:17;;;;;;;8.07;5.32;;;;;;;22.59;58.61;98517.31;5054121;28;20040;-74
2023/09/29 10:21:45;;;;;;;7.22;5.50;;;;;;;22.57;58.62;98522.28;5050561;28;20155;-74
2023/09/29 10:24:13;;;;;;;7.97;5.55;;;;;;;22.53;58.46;98510.31;5034240;28;20124;-74
2023/09/29 10:26:43;;;;;;;8.75;5.30;;;;;;;22.65;58.46;98524.31;5052488;28;20494;-75
2023/09/29 10:29:18;;;;;;;8.40;5.65;;;;;;;22.71;58.48;98520.28;5050622;28;20033;-75
2023/09/29 10:31:43;;;;;;;6.25;5.18;;;;;;;22.63;58.09;98512.81;5053631;28;20029;-74
2023/09/29 10:34:17;;;;;;;10.68;5.32;;;;;;;22.71;57.73;98514.78;5053728;28;20511;-75
2023/09/29 10:36:43;;;;;;;7.35;5.53;;;;;;;22.88;58.37;98525.88;5049945;28;20040;-75
2023/09/29 10:39:09;;;;;;;9.10;5.10;;;;;;;22.98;57.68;98509.13;5045197;28;20341;-75
2023/09/29 10:41:37;;;;;;;7.93;5.38;;;;;;;23.11;58.58;98513.69;5049497;28;20403;-72
2023/09/29 10:44:07;;;;;;;9.00;5.30;;;;;;;23.28;57.37;98511.00;5052537;28;20036;-72
2023/09/29 10:46:32;;;;;;;8.55;5.90;;;;;;;23.22;57.16;98487.53;5054301;28;20113;-72
2023/09/29 10:48:58;;;;;;;6.65;4.65;;;;;;;23.35;57.17;98502.31;5052854;28;20056;-70
2023/09/29 10:51:30;;;;;;;7.95;5.20;;;;;;;23.27;57.24;98505.81;5050532;28;20032;-72
2023/09/29 10:54:02;;;;;;;9.15;5.07;;;;;;;23.22;56.94;98504.00;5036780;28;20040;-71
2023/09/29 10:56:27;;;;;;;8.30;4.93;;;;;;;23.12;57.87;98487.84;5071418;28;20036;-74
2023/09/29 10:58:54;;;;;;;9.75;5.57;;;;;;;23.15;57.97;98498.16;5054533;28;20400;-74
2023/09/29 11:01:22;;;;;;;8.02;5.32;;;;;;;23.28;57.83;98497.25;5055873;28;20038;-76
2023/09/29 11:03:48;;;;;;;8.68;5.15;;;;;;;23.28;56.48;98472.53;5037727;28;20039;-76
2023/09/29 11:06:18;;;;;;;8.15;5.60;;;;;;;23.43;56.51;98473.22;5050500;28;20112;-74
2023/09/29 11:08:59;;;;;;;6.95;5.03;;;;;;;23.55;56.49;98484.41;5049375;28;20066;-74
2023/09/29 11:11:26;;;;;;;9.43;4.75;;;;;;;23.53;55.76;98470.16;5047976;28;20111;-74
2023/09/29 11:13:55;;;;;;;8.20;4.90;;;;;;;23.69;55.18;98463.84;5050823;28;20400;-75
2023/09/29 11:16:24;;;;;;;6.60;5.22;;;;;;;23.75;55.51;98470.00;5037952;28;20033;-77
2023/09/29 11:18:50;;;;;;;8.75;4.95;;;;;;;23.87;55.55;98465.50;5040239;28;20059;-73
2023/09/29 11:21:18;;;;;;;6.50;4.93;;;;;;;24.05;54.40;98474.53;5076101;28;20519;-73
2023/09/29 11:23:47;;;;;;;7.00;5.10;;;;;;;24.12;54.15;98466.63;5058046;28;20020;-76
2023/09/29 11:26:13;;;;;;;9.40;4.93;;;;;;;24.12;53.99;98447.34;5059443;28;20057;-75
2023/09/29 11:28:41;;;;;;;7.97;5.30;;;;;;;24.35;53.95;98454.28;5075698;28;20033;-74